Time;durP1;ratioP1;P1;durP2;ratioP2;P2;SDS_P1;SDS_P2;PMS_P1;PMS_P2;Temp;Humidity;BMP_temperature;BMP_pressure;BME280_temperature;BME280_humidity;BME280_pressure;Samples;Min_cycle;Max_cycle;Signal;HPM_P1;HPM_P2
2022/09/20 00:02:16;;;;;;;3.20;1.80;;;;;;;9.43;99.55;100760.97;5115483;28;20476;-78
2022/09/20 00:04:41;;;;;;;5.73;1.77;;;;;;;9.44;100.00;100754.44;5115780;28;20254;-78
2022/09/20 00:07:06;;;;;;;7.75;1.60;;;;;;;9.40;100.00;100759.66;5116051;28;20417;-78
2022/09/20 00:09:32;;;;;;;5.72;1.63;;;;;;;9.53;99.70;100756.06;5097571;28;20462;-78
2022/09/20 00:11:58;;;;;;;7.03;1.60;;;;;;;9.57;99.70;100756.22;5115802;28;20020;-78
2022/09/20 00:14:24;;;;;;;4.07;1.65;;;;;;;9.44;100.00;100754.44;5115854;28;20072;-78
2022/09/20 00:16:49;;;;;;;5.45;1.98;;;;;;;9.36;100.00;100750.53;5115584;28;20049;-78
2022/09/20 00:19:20;;;;;;;6.73;1.57;;;;;;;9.48;100.00;100760.84;5097318;28;20023;-79
2022/09/20 00:21:46;;;;;;;6.43;2.03;;;;;;;9.72;99.78;100761.25;5080250;28;20031;-78
2022/09/20 00:24:12;;;;;;;10.38;1.67;;;;;;;9.93;97.22;100758.81;5115295;28;20019;-77
2022/09/20 00:26:38;;;;;;;6.10;1.77;;;;;;;9.85;98.09;100763.09;5115533;28;20072;-77
2022/09/20 00:29:04;;;;;;;5.28;1.58;;;;;;;9.82;97.76;100760.19;5115486;28;20023;-77
2022/09/20 00:31:30;;;;;;;9.10;1.45;;;;;;;9.95;97.02;100764.75;5115615;28;20065;-78
2022/09/20 00:36:41;;;;;;;9.15;1.63;;;;;;;9.67;98.54;100766.84;5115651;28;20088;-78
2022/09/20 00:39:10;;;;;;;9.15;2.08;;;;;;;9.62;99.12;100765.06;5097025;28;20023;-78
2022/09/20 00:41:36;;;;;;;4.63;1.58;;;;;;;9.50;99.51;100764.03;5096540;28;20564;-78
2022/09/20 00:44:22;;;;;;;4.68;1.30;;;;;;;9.47;100.00;100765.47;5115010;28;20126;-78
2022/09/20 00:46:47;;;;;;;4.90;1.73;;;;;;;9.40;99.82;100764.28;5115139;28;20024;-78
2022/09/20 00:49:26;;;;;;;4.03;1.37;;;;;;;9.53;100.00;100769.66;5115076;28;20036;-78
2022/09/20 00:51:59;;;;;;;6.65;2.38;;;;;;;9.40;99.92;100772.44;5115043;28;20277;-78
2022/09/20 00:54:26;;;;;;;6.85;1.88;;;;;;;9.55;99.20;100772.06;5115261;28;20027;-78
2022/09/20 00:56:51;;;;;;;5.75;1.50;;;;;;;9.40;99.68;100770.53;5115333;28;20040;-78
2022/09/20 00:59:33;;;;;;;7.28;1.50;;;;;;;9.27;100.00;100769.50;5114898;28;20114;-78
2022/09/20 01:02:04;;;;;;;5.53;1.67;;;;;;;9.46;99.89;100768.50;5115370;28;20472;-76
2022/09/20 01:04:29;;;;;;;6.72;2.20;;;;;;;9.32;100.00;100769.38;5114975;28;20047;-76
2022/09/20 01:06:58;;;;;;;4.50;2.00;;;;;;;9.24;100.00;100764.69;5096317;28;20104;-76
2022/09/20 01:09:24;;;;;;;7.40;1.80;;;;;;;9.18;100.00;100763.19;5114942;28;20035;-76
2022/09/20 01:11:50;;;;;;;8.33;1.97;;;;;;;9.14;100.00;100761.41;5096534;28;20023;-76
2022/09/20 01:14:21;;;;;;;6.45;1.58;;;;;;;9.20;100.00;100765.59;5114656;28;20463;-76
2022/09/20 01:16:46;;;;;;;5.72;1.83;;;;;;;9.09;100.00;100767.78;5114580;28;20623;-76
2022/09/20 01:19:26;;;;;;;4.70;1.77;;;;;;;9.05;100.00;100764.06;5114613;28;20106;-77
2022/09/20 01:21:52;;;;;;;8.82;2.30;;;;;;;9.03;100.00;100771.72;5114761;28;20035;-77
2022/09/20 01:24:55;;;;;;;6.93;1.83;;;;;;;8.95;100.00;100769.75;5114469;28;20104;-76
2022/09/20 01:27:40;;;;;;;5.10;1.90;;;;;;;8.92;100.00;100771.19;5091764;28;20039;-77
2022/09/20 01:30:15;;;;;;;4.15;1.77;;;;;;;8.85;100.00;100762.63;5095905;28;20115;-77
2022/09/20 01:33:26;;;;;;;9.17;1.97;;;;;;;8.81;100.00;100775.22;5114621;28;20012;-77
2022/09/20 01:35:53;;;;;;;4.97;2.20;;;;;;;8.79;100.00;100769.31;5088202;28;20276;-76
2022/09/20 01:38:43;;;;;;;8.00;1.92;;;;;;;8.79;100.00;100771.22;5095847;28;20464;-76
2022/09/20 01:41:14;;;;;;;6.75;2.17;;;;;;;8.76;100.00;100771.84;5114318;28;20103;-77
2022/09/20 01:43:44;;;;;;;5.15;2.38;;;;;;;8.77;100.00;100770.72;5113881;28;20043;-76
2022/09/20 01:46:31;;;;;;;6.25;2.10;;;;;;;8.85;100.00;100772.69;5113939;28;20020;-77
2022/09/20 01:49:23;;;;;;;4.88;1.92;;;;;;;9.07;100.00;100775.44;5095600;28;20024;-76
2022/09/20 01:52:07;;;;;;;6.55;1.90;;;;;;;9.16;100.00;100780.94;5113925;28;20019;-77
2022/09/20 01:54:35;;;;;;;6.57;2.47;;;;;;;9.03;100.00;100771.72;5114219;28;20024;-76
2022/09/20 01:57:06;;;;;;;6.57;2.17;;;;;;;8.99;100.00;100770.75;5113996;28;20024;-77
2022/09/20 01:59:55;;;;;;;7.32;2.53;;;;;;;8.94;100.00;100766.25;5113777;28;20062;-76
2022/09/20 02:02:39;;;;;;;6.25;2.40;;;;;;;9.10;100.00;100769.41;5113895;28;20028;-76
2022/09/20 02:05:22;;;;;;;6.40;2.60;;;;;;;8.99;100.00;100770.75;5113963;28;20030;-76
2022/09/20 02:07:54;;;;;;;9.00;2.80;;;;;;;8.86;100.00;100772.38;5113840;28;20088;-76
2022/09/20 02:10:40;;;;;;;6.40;2.55;;;;;;;8.80;100.00;100764.69;5113431;28;20061;-76
2022/09/20 02:13:10;;;;;;;9.77;2.67;;;;;;;8.73;100.00;100763.19;5095032;28;20023;-76
2022/09/20 02:15:57;;;;;;;7.57;3.47;;;;;;;8.69;100.00;100756.75;5113691;28;20129;-76
2022/09/20 02:18:40;;;;;;;;;;;;;;;8.66;100.00;100762.00;5114062;28;20088;-76
2022/09/20 02:21:29;;;;;;;6.80;2.60;;;;;;;8.64;100.00;100766.94;5113021;28;20288;-76
2022/09/20 02:24:27;;;;;;;8.85;2.47;;;;;;;8.66;100.00;100762.00;5095001;28;20431;-77
2022/09/20 02:27:11;;;;;;;9.52;2.78;;;;;;;8.74;100.00;100764.81;5113277;28;20051;-76
2022/09/20 02:30:06;;;;;;;8.18;3.03;;;;;;;8.74;100.00;100764.81;5094840;28;20484;-76
2022/09/20 02:32:44;;;;;;;7.40;2.80;;;;;;;8.76;100.00;100758.25;5022768;28;20340;-77
2022/09/20 02:35:29;;;;;;;5.78;2.88;;;;;;;8.72;100.00;100766.19;5112909;28;20020;-76
2022/09/20 02:38:09;;;;;;;7.80;2.70;;;;;;;8.70;100.00;100763.78;5112725;28;20088;-76
2022/09/20 02:40:34;;;;;;;7.53;3.58;;;;;;;8.71;100.00;100767.31;5112961;28;20031;-76
2022/09/20 02:43:24;;;;;;;7.37;3.00;;;;;;;8.70;100.00;100765.69;5112780;28;20036;-76
2022/09/20 02:46:10;;;;;;;8.05;2.80;;;;;;;8.67;100.00;100764.41;5112908;28;20055;-76
2022/09/20 02:48:48;;;;;;;6.05;2.72;;;;;;;8.74;100.00;100764.00;5060907;28;20035;-76
2022/09/20 02:51:24;;;;;;;11.73;2.90;;;;;;;8.77;100.00;100768.00;5095857;28;20032;-76
2022/09/20 02:54:27;;;;;;;7.90;2.58;;;;;;;8.82;100.00;100763.25;5078200;28;20088;-76
2022/09/20 02:57:13;;;;;;;8.02;2.65;;;;;;;8.93;100.00;100761.13;5094398;28;20043;-76
2022/09/20 03:00:08;;;;;;;8.05;2.40;;;;;;;8.88;100.00;100770.16;5094318;28;20213;-76
2022/09/20 03:03:09;;;;;;;6.95;2.90;;;;;;;8.87;100.00;100757.69;5110173;28;20043;-77
2022/09/20 03:05:54;;;;;;;8.57;2.88;;;;;;;8.85;100.00;100762.63;5112534;28;20092;-77
2022/09/20 03:08:46;;;;;;;8.57;2.85;;;;;;;8.91;100.00;100768.78;5112499;28;20024;-77
2022/09/20 03:11:23;;;;;;;5.25;2.20;;;;;;;8.95;100.00;100759.69;5112711;28;20058;-77
2022/09/20 03:14:09;;;;;;;7.40;2.75;;;;;;;8.95;100.00;100762.41;5112383;28;20070;-76
2022/09/20 03:17:11;;;;;;;5.70;2.25;;;;;;;9.02;100.00;100759.25;5111727;28;20047;-77
2022/09/20 03:19:55;;;;;;;6.53;2.47;;;;;;;9.01;100.00;100763.09;5112647;28;20102;-76
2022/09/20 03:22:59;;;;;;;6.22;2.20;;;;;;;8.95;100.00;100758.91;5094028;28;20035;-77
2022/09/20 03:25:41;;;;;;;8.48;3.33;;;;;;;9.02;100.00;100757.34;5112320;28;20031;-77
2022/09/20 03:28:31;;;;;;;5.35;2.13;;;;;;;9.03;100.00;100761.66;5112615;28;20039;-77
2022/09/20 03:31:15;;;;;;;5.90;2.50;;;;;;;9.00;100.00;100764.19;5112482;28;20059;-77
2022/09/20 03:34:04;;;;;;;4.93;2.47;;;;;;;9.00;100.00;100764.19;5115382;28;20020;-77
2022/09/20 03:36:48;;;;;;;5.35;2.78;;;;;;;8.96;100.00;100771.34;5116562;28;20468;-77
2022/09/20 03:40:02;;;;;;;5.10;2.22;;;;;;;9.46;100.00;100765.78;5116853;28;20027;-76
2022/09/20 03:42:28;;;;;;;7.35;2.38;;;;;;;9.33;100.00;100764.75;5108205;28;20044;-77
2022/09/20 03:45:28;;;;;;;5.78;2.28;;;;;;;9.28;100.00;100767.59;5115949;28;20057;-76
2022/09/20 03:47:57;;;;;;;7.30;2.50;;;;;;;9.25;100.00;100757.34;5116210;28;20111;-76
2022/09/20 03:50:33;;;;;;;8.27;2.30;;;;;;;9.46;100.00;100754.91;5097864;28;20015;-77
2022/09/20 03:53:39;;;;;;;6.03;2.83;;;;;;;9.21;100.00;100757.16;5116045;28;20026;-76
2022/09/20 03:56:08;;;;;;;6.00;2.30;;;;;;;9.21;100.00;100757.16;5112707;28;20051;-78
2022/09/20 03:58:42;;;;;;;8.55;2.63;;;;;;;9.47;100.00;100754.59;5116029;28;20028;-76
2022/09/20 04:01:41;;;;;;;5.28;2.72;;;;;;;9.31;100.00;100762.34;5115995;28;20395;-76
2022/09/20 04:04:23;;;;;;;7.45;2.75;;;;;;;9.20;100.00;100765.59;5115879;28;20020;-74
2022/09/20 04:07:15;;;;;;;7.32;2.45;;;;;;;9.17;100.00;100760.81;5097444;28;20452;-76
2022/09/20 04:09:59;;;;;;;5.32;2.35;;;;;;;9.10;100.00;100763.97;5115868;28;20072;-76
2022/09/20 04:12:46;;;;;;;7.03;2.65;;;;;;;9.12;100.00;100767.16;5115820;28;20103;-76
2022/09/20 04:15:11;;;;;;;5.25;2.00;;;;;;;9.07;100.00;100761.88;5097452;28;20140;-76
2022/09/20 04:18:00;;;;;;;8.13;2.70;;;;;;;9.12;100.00;100755.50;5115666;28;20112;-76
2022/09/20 04:20:30;;;;;;;8.68;2.60;;;;;;;9.12;100.00;100758.22;5097383;28;20483;-76
2022/09/20 04:23:01;;;;;;;6.05;2.78;;;;;;;9.07;100.00;100764.59;5097131;28;20032;-76
2022/09/20 04:25:36;;;;;;;7.03;2.25;;;;;;;9.10;100.00;100771.31;5115520;28;20531;-76
2022/09/20 04:28:20;;;;;;;6.57;2.45;;;;;;;9.15;100.00;100768.47;5115523;28;20028;-76
2022/09/20 04:30:50;;;;;;;12.27;3.33;;;;;;;9.16;100.00;100776.31;5097029;28;20496;-75
2022/09/20 04:33:35;;;;;;;7.95;2.67;;;;;;;9.41;100.00;100774.06;5115236;28;20027;-76
2022/09/20 04:36:27;;;;;;;7.22;2.33;;;;;;;9.33;100.00;100767.47;5097015;28;20030;-75
2022/09/20 04:39:22;;;;;;;6.25;2.38;;;;;;;9.61;100.00;100763.47;5115187;28;20032;-76
2022/09/20 04:42:07;;;;;;;5.68;2.33;;;;;;;9.50;100.00;100772.19;5096621;28;20062;-76
2022/09/20 04:45:15;;;;;;;7.28;2.65;;;;;;;9.33;100.00;100762.81;5096435;28;20035;-76
2022/09/20 04:48:12;;;;;;;6.20;2.88;;;;;;;9.29;100.00;100770.00;5115019;28;20032;-76
2022/09/20 04:50:56;;;;;;;10.32;3.17;;;;;;;9.47;100.00;100772.81;5114012;28;20032;-76
2022/09/20 04:53:53;;;;;;;7.60;2.50;;;;;;;9.35;100.00;100768.75;5115059;28;20016;-77
2022/09/20 04:56:36;;;;;;;6.60;2.45;;;;;;;9.33;100.00;100781.06;5111729;28;20104;-76
2022/09/20 04:59:09;;;;;;;4.90;2.00;;;;;;;9.35;100.00;100779.63;5115403;28;20067;-76
2022/09/20 05:02:08;;;;;;;16.65;2.65;;;;;;;9.47;100.00;100786.41;5114533;28;20016;-76
2022/09/20 05:04:49;;;;;;;6.32;2.58;;;;;;;9.39;100.00;100773.56;5114480;28;20114;-76
2022/09/20 05:08:01;;;;;;;6.60;2.28;;;;;;;9.40;100.00;100783.31;5114942;28;20030;-76
2022/09/20 05:11:00;;;;;;;9.52;2.97;;;;;;;9.53;100.00;100787.88;5114853;28;20119;-76
2022/09/20 05:13:47;;;;;;;6.00;2.50;;;;;;;9.59;100.00;100792.09;5096308;28;20061;-76
2022/09/20 05:16:31;;;;;;;;;;;;;;;9.58;100.00;100779.63;5096396;28;20397;-76
2022/09/20 05:19:27;;;;;;;5.90;2.38;;;;;;;9.51;100.00;100782.75;5096090;28;19908;-76
2022/09/20 05:22:05;;;;;;;4.78;1.85;;;;;;;9.50;100.00;100788.50;5114589;28;20015;-76
2022/09/20 05:25:13;;;;;;;8.25;2.80;;;;;;;9.80;100.00;100795.06;5114294;28;20039;-77
2022/09/20 05:27:47;;;;;;;8.68;2.65;;;;;;;9.93;100.00;100792.25;5066533;28;20027;-75
2022/09/20 05:30:32;;;;;;;7.20;2.60;;;;;;;9.90;100.00;100803.75;5096074;28;20200;-77
2022/09/20 05:33:20;;;;;;;6.47;2.63;;;;;;;9.84;100.00;100802.28;5114283;28;20027;-77
2022/09/20 05:36:08;;;;;;;7.10;2.60;;;;;;;9.75;100.00;100809.63;5114521;28;20030;-77
2022/09/20 05:39:09;;;;;;;7.82;2.40;;;;;;;9.67;100.00;100804.13;5114474;28;20023;-77
2022/09/20 05:41:42;;;;;;;5.72;2.10;;;;;;;9.71;100.00;100808.63;5095617;28;20118;-76
2022/09/20 05:44:30;;;;;;;7.72;2.80;;;;;;;9.81;100.00;100808.34;5113781;28;20059;-77
2022/09/20 05:47:31;;;;;;;7.38;2.40;;;;;;;9.83;100.00;100803.41;5095284;28;20108;-77
2022/09/20 05:50:08;;;;;;;5.97;2.38;;;;;;;9.92;100.00;100806.97;5113980;28;20118;-77
2022/09/20 05:52:51;;;;;;;10.68;4.25;;;;;;;9.88;100.00;100811.41;5113849;28;20030;-77
2022/09/20 05:55:33;;;;;;;7.50;3.65;;;;;;;9.92;100.00;100815.16;5112825;28;20027;-77
2022/09/20 05:58:18;;;;;;;7.20;2.58;;;;;;;9.93;100.00;100815.94;5113542;28;20027;-76
2022/09/20 06:00:52;;;;;;;7.90;2.78;;;;;;;10.02;100.00;100821.41;5113791;28;20032;-77
2022/09/20 06:03:39;;;;;;;10.25;2.75;;;;;;;10.09;100.00;100816.34;5113219;28;20030;-77
2022/09/20 06:06:24;;;;;;;8.40;3.05;;;;;;;10.12;100.00;100819.22;5094934;28;20031;-77
2022/09/20 06:09:07;;;;;;;6.97;2.50;;;;;;;10.18;100.00;100817.16;5113332;28;20022;-77
2022/09/20 06:11:45;;;;;;;8.02;2.75;;;;;;;10.29;100.00;100823.97;5095054;28;20595;-77
2022/09/20 06:14:20;;;;;;;7.70;2.50;;;;;;;10.29;100.00;100823.97;5113179;28;20507;-77
2022/09/20 06:17:10;;;;;;;8.15;2.28;;;;;;;10.29;100.00;100817.72;5113369;28;20024;-77
2022/09/20 06:19:40;;;;;;;8.38;2.78;;;;;;;10.45;100.00;100810.72;5113120;28;20027;-76
2022/09/20 06:22:29;;;;;;;5.88;2.58;;;;;;;10.44;100.00;100820.00;5094696;28;20043;-77
2022/09/20 06:25:07;;;;;;;8.02;2.50;;;;;;;10.54;100.00;100819.69;5112969;28;20027;-77
2022/09/20 06:28:06;;;;;;;9.35;2.28;;;;;;;10.67;99.01;100815.22;5113382;28;20030;-77
2022/09/20 06:30:42;;;;;;;8.60;3.17;;;;;;;10.61;99.58;100819.25;5094546;28;20102;-77
2022/09/20 06:33:16;;;;;;;7.40;3.00;;;;;;;10.75;98.92;100817.16;5112760;28;20023;-77
2022/09/20 06:35:48;;;;;;;7.68;1.92;;;;;;;10.76;99.46;100829.69;5112503;28;20032;-77
2022/09/20 06:41:27;;;;;;;5.28;2.05;;;;;;;10.91;98.80;100834.63;5113099;28;20142;-77
2022/09/20 06:43:57;;;;;;;6.00;2.40;;;;;;;10.87;98.32;100825.50;5091102;28;20135;-77
2022/09/20 06:46:24;;;;;;;7.70;2.55;;;;;;;10.99;98.16;100828.41;5092719;28;20204;-77
2022/09/20 06:48:50;;;;;;;6.03;2.70;;;;;;;11.00;98.13;100821.84;5092454;28;20028;-77
2022/09/20 06:51:15;;;;;;;8.43;2.90;;;;;;;10.86;97.94;100826.63;5092281;28;20016;-77
2022/09/20 06:53:41;;;;;;;8.00;2.83;;;;;;;11.01;97.80;100828.09;5090600;28;20276;-77
2022/09/20 06:56:11;;;;;;;9.98;2.85;;;;;;;11.18;97.02;100828.09;5092041;28;20035;-77
2022/09/20 06:58:36;;;;;;;6.53;2.20;;;;;;;11.26;97.10;100823.78;5092250;28;20054;-76
2022/09/20 07:01:01;;;;;;;6.80;2.53;;;;;;;10.93;97.03;100835.16;5092172;28;20034;-77
2022/09/20 07:03:27;;;;;;;14.35;3.25;;;;;;;10.91;98.18;100839.28;5091772;28;20088;-77
2022/09/20 07:05:52;;;;;;;6.20;2.33;;;;;;;11.21;97.51;100837.53;5091665;28;20122;-77
2022/09/20 07:08:17;;;;;;;6.60;2.60;;;;;;;11.17;96.48;100844.75;5091699;28;20034;-77
2022/09/20 07:10:43;;;;;;;7.57;2.23;;;;;;;11.04;97.60;100844.59;5090690;28;20039;-76
2022/09/20 07:13:12;;;;;;;6.82;3.47;;;;;;;10.96;96.99;100847.31;5092022;28;20028;-77
2022/09/20 07:15:38;;;;;;;7.63;2.85;;;;;;;11.10;96.31;100850.72;5092144;28;20032;-77
2022/09/20 07:18:03;;;;;;;10.70;2.42;;;;;;;11.02;96.02;100855.00;5090402;28;20039;-76
2022/09/20 07:20:29;;;;;;;6.32;3.28;;;;;;;10.91;96.99;100856.44;5090463;28;20032;-77
2022/09/20 07:22:54;;;;;;;11.80;3.97;;;;;;;10.90;97.12;100854.84;5091688;28;20028;-76
2022/09/20 07:25:20;;;;;;;6.37;2.57;;;;;;;10.90;97.25;100859.47;5092017;28;20491;-77
2022/09/20 07:27:48;;;;;;;;;;;;;;;11.04;97.37;100855.50;5090290;28;20314;-77
2022/09/20 07:30:14;;;;;;;7.22;2.38;;;;;;;11.04;96.81;100863.66;5090537;28;19919;-77
2022/09/20 07:32:39;;;;;;;11.07;2.97;;;;;;;11.02;96.65;100863.19;5091549;28;20020;-77
2022/09/20 07:35:11;;;;;;;12.02;2.38;;;;;;;10.98;95.80;100867.69;5091654;28;20103;-77
2022/09/20 07:37:40;;;;;;;8.15;2.10;;;;;;;11.09;95.31;100863.53;5090550;28;20061;-77
2022/09/20 07:40:07;;;;;;;6.72;2.25;;;;;;;11.20;95.34;100858.53;5090518;28;20093;-76
2022/09/20 07:42:32;;;;;;;7.53;2.63;;;;;;;11.44;94.73;100858.88;5090111;28;20124;-76
2022/09/20 07:44:58;;;;;;;4.63;1.70;;;;;;;11.40;93.42;100854.38;5091744;28;20043;-77
2022/09/20 07:47:24;;;;;;;;;;;;;;;11.62;91.20;100858.84;5092322;28;20491;-77
2022/09/20 07:49:50;;;;;;;6.18;2.20;;;;;;;11.43;91.90;100853.75;5090214;28;19998;-77
2022/09/20 07:52:16;;;;;;;;;;;;;;;11.50;92.82;100854.06;5091764;28;20119;-77
2022/09/20 07:54:41;;;;;;;5.15;2.00;;;;;;;11.95;90.56;100861.88;5091674;28;19995;-77
2022/09/20 07:57:07;;;;;;;;;;;;;;;11.50;89.35;100855.97;5092139;28;20020;-78
2022/09/20 07:59:32;;;;;;;4.95;1.60;;;;;;;11.49;88.93;100857.91;5091923;28;20356;-76
2022/09/20 08:01:59;;;;;;;4.65;1.95;;;;;;;11.44;88.37;100863.53;5091475;28;20024;-78
2022/09/20 08:04:25;;;;;;;6.85;1.27;;;;;;;11.98;89.09;100867.47;5091900;28;20115;-77
2022/09/20 08:06:50;;;;;;;3.75;1.67;;;;;;;12.00;88.64;100865.22;5091592;28;20103;-77
2022/09/20 08:09:16;;;;;;;4.40;1.75;;;;;;;12.01;88.22;100866.00;5091470;28;20111;-77
2022/09/20 08:11:42;;;;;;;2.92;1.30;;;;;;;12.15;87.45;100861.16;5089821;28;20024;-77
2022/09/20 08:14:11;;;;;;;;;;;;;;;12.07;85.58;100875.63;5091400;28;20053;-77
2022/09/20 08:16:39;;;;;;;4.68;1.48;;;;;;;12.14;84.44;100872.41;5091698;28;19960;-77
2022/09/20 08:19:04;;;;;;;2.75;0.88;;;;;;;12.24;83.43;100881.00;5094075;28;20031;-77
2022/09/20 08:21:32;;;;;;;5.07;1.23;;;;;;;12.18;82.00;100879.59;5094898;28;20024;-77
2022/09/20 08:23:58;;;;;;;2.63;0.98;;;;;;;12.22;83.64;100882.47;5094935;28;20254;-77
2022/09/20 08:26:25;;;;;;;2.65;1.05;;;;;;;12.29;83.66;100878.13;5094886;28;20032;-77
2022/09/20 08:28:52;;;;;;;3.90;1.48;;;;;;;12.26;84.01;100881.50;5094482;28;20054;-77
2022/09/20 08:31:19;;;;;;;4.03;1.13;;;;;;;12.07;81.96;100886.53;5094562;28;20157;-78
2022/09/20 08:33:49;;;;;;;2.72;1.00;;;;;;;12.14;82.43;100881.38;5094848;28;20031;-78
2022/09/20 08:36:18;;;;;;;4.47;1.05;;;;;;;12.25;83.83;100888.06;5093355;28;20023;-77
2022/09/20 08:38:45;;;;;;;3.50;0.70;;;;;;;12.57;82.60;100888.59;5094464;28;20054;-76
2022/09/20 08:41:31;;;;;;;7.55;2.35;;;;;;;12.28;83.38;100890.19;5093216;28;20031;-77
2022/09/20 08:44:01;;;;;;;7.03;1.87;;;;;;;12.42;82.95;100878.22;5112529;28;20047;-77
2022/09/20 08:46:39;;;;;;;7.53;2.83;;;;;;;12.44;82.35;100889.63;5114897;28;20030;-77
2022/09/20 08:49:07;;;;;;;7.72;2.80;;;;;;;12.12;81.77;100877.38;5115044;28;20034;-77
2022/09/20 08:51:37;;;;;;;7.35;3.05;;;;;;;12.32;83.61;100890.31;5115271;28;20015;-77
2022/09/20 08:54:06;;;;;;;9.75;2.75;;;;;;;12.21;83.89;100897.25;5114745;28;20019;-77
2022/09/20 08:56:38;;;;;;;7.03;2.60;;;;;;;12.44;82.83;100889.63;5114900;28;20472;-78
2022/09/20 08:59:06;;;;;;;3.95;1.98;;;;;;;12.45;82.57;100893.97;5114988;28;20426;-77
2022/09/20 09:01:32;;;;;;;6.45;1.80;;;;;;;12.61;82.19;100895.00;5096394;28;20016;-77
2022/09/20 09:04:22;;;;;;;5.07;1.45;;;;;;;12.57;80.73;100897.56;5114959;28;20370;-78
2022/09/20 09:06:49;;;;;;;7.85;1.90;;;;;;;12.85;79.70;100900.66;5114487;28;20085;-78
2022/09/20 09:09:23;;;;;;;4.82;1.10;;;;;;;12.67;77.66;100904.63;5116097;28;20023;-84
2022/09/20 09:11:50;;;;;;;3.30;0.73;;;;;;;12.55;78.04;100904.50;5115212;28;20368;-78
2022/09/20 09:17:10;;;;;;;3.38;1.05;;;;;;;12.67;78.71;100907.34;5114327;28;20030;-77
2022/09/20 09:20:06;;;;;;;2.88;0.93;;;;;;;12.79;76.66;100901.97;5114582;28;20337;-80
2022/09/20 09:22:35;;;;;;;3.53;1.15;;;;;;;12.76;76.38;100899.88;5113750;28;20035;-78
2022/09/20 09:25:17;;;;;;;4.50;1.30;;;;;;;12.82;77.46;100908.72;5114193;28;20024;-78
2022/09/20 09:28:00;;;;;;;4.03;1.00;;;;;;;12.87;76.96;100906.59;5095941;28;20024;-78
2022/09/20 09:30:36;;;;;;;2.70;1.10;;;;;;;12.92;77.09;100905.59;5094535;28;20031;-79
2022/09/20 09:33:25;;;;;;;2.75;1.00;;;;;;;13.02;78.27;100905.22;5114092;28;20114;-77
2022/09/20 09:36:02;;;;;;;2.47;1.00;;;;;;;12.82;76.88;100901.31;5095607;28;20110;-80
2022/09/20 09:38:33;;;;;;;2.40;0.80;;;;;;;12.71;77.38;100896.56;5095557;28;20023;-78
2022/09/20 09:41:05;;;;;;;6.43;1.20;;;;;;;12.78;78.52;100899.59;5095343;28;20054;-77
2022/09/20 09:43:34;;;;;;;3.85;0.90;;;;;;;12.70;78.48;100898.47;5113496;28;20043;-79
2022/09/20 09:46:22;;;;;;;3.17;1.05;;;;;;;12.60;78.21;100901.59;5114039;28;20103;-79
2022/09/20 09:49:15;;;;;;;5.13;1.23;;;;;;;12.52;77.50;100900.50;5113820;28;20026;-80
2022/09/20 09:52:00;;;;;;;3.78;1.05;;;;;;;12.58;77.38;100896.44;5113641;28;20453;-79
2022/09/20 09:54:27;;;;;;;2.45;0.80;;;;;;;12.57;77.47;100896.78;5113647;28;20081;-78
2022/09/20 09:57:19;;;;;;;2.40;0.77;;;;;;;12.59;77.57;100895.31;5095019;28;20026;-79
2022/09/20 10:00:03;;;;;;;3.47;1.00;;;;;;;12.58;77.39;100895.66;5113482;28;20024;-79
2022/09/20 10:02:57;;;;;;;1.90;0.75;;;;;;;12.63;77.60;100890.81;5113469;28;20099;-79
2022/09/20 10:06:03;;;;;;;3.13;1.08;;;;;;;12.69;76.87;100890.63;5113579;28;20072;-78
2022/09/20 10:08:52;;;;;;;5.05;1.05;;;;;;;12.69;76.24;100890.63;5113621;28;20069;-78
2022/09/20 10:11:42;;;;;;;3.50;0.93;;;;;;;12.71;75.99;100889.16;5113495;28;20031;-78
2022/09/20 10:14:29;;;;;;;4.32;0.98;;;;;;;12.72;74.78;100885.28;5113265;28;20032;-80
2022/09/20 10:17:03;;;;;;;4.40;0.65;;;;;;;12.67;78.61;100898.34;5113056;28;20022;-79
2022/09/20 10:19:41;;;;;;;2.25;1.08;;;;;;;12.53;79.85;100899.38;5113187;28;20088;-79
2022/09/20 10:22:18;;;;;;;3.05;1.58;;;;;;;12.44;78.99;100895.09;5113374;28;20020;-79
2022/09/20 10:24:59;;;;;;;2.08;0.77;;;;;;;12.42;79.71;100900.84;5112890;28;20036;-79
2022/09/20 10:28:05;;;;;;;4.40;0.88;;;;;;;12.34;82.54;100905.25;5112243;28;20036;-78
2022/09/20 10:30:44;;;;;;;3.10;0.73;;;;;;;12.30;84.77;100900.75;5112876;28;20024;-78
2022/09/20 10:33:47;;;;;;;7.80;1.67;;;;;;;12.29;83.90;100910.09;5113017;28;20069;-78
2022/09/20 10:36:30;;;;;;;3.60;0.85;;;;;;;12.29;84.00;100899.97;5110507;28;20028;-78
2022/09/20 10:39:00;;;;;;;2.85;0.90;;;;;;;12.31;83.90;100903.16;5094381;28;20122;-78
2022/09/20 10:44:56;;;;;;;3.08;0.60;;;;;;;12.27;83.36;100902.22;5112591;28;20403;-79
2022/09/20 10:47:33;;;;;;;3.50;1.13;;;;;;;12.34;83.58;100901.72;5097409;28;20020;-78
2022/09/20 10:50:13;;;;;;;;;;;;;;;12.37;82.53;100898.31;5113160;28;20027;-78
2022/09/20 10:53:09;;;;;;;4.50;0.88;;;;;;;12.50;83.46;100901.97;5115040;28;19956;-79
2022/09/20 10:56:15;;;;;;;4.50;1.55;;;;;;;12.74;82.02;100902.16;5095920;28;20059;-78
2022/09/20 10:59:01;;;;;;;2.50;0.80;;;;;;;13.23;82.72;100900.56;5112656;28;20031;-78
2022/09/20 11:01:49;;;;;;;2.38;0.88;;;;;;;13.73;80.47;100894.19;5112319;28;20476;-78
2022/09/20 11:04:36;;;;;;;6.40;2.00;;;;;;;13.88;77.87;100892.75;5112283;28;20028;-78
2022/09/20 11:07:18;;;;;;;3.63;0.85;;;;;;;13.75;75.09;100893.84;5112629;28;20110;-78
2022/09/20 11:10:20;;;;;;;3.90;0.75;;;;;;;13.88;73.74;100895.50;5112734;28;20040;-78
2022/09/20 11:13:24;;;;;;;5.38;1.83;;;;;;;13.65;72.80;100897.03;4993912;28;20057;-87
2022/09/20 11:16:01;;;;;;;4.47;1.45;;;;;;;13.40;71.33;100910.59;4980727;28;20037;-79
2022/09/20 11:18:39;;;;;;;3.25;0.88;;;;;;;13.37;71.99;100911.25;5109618;28;20541;-79
2022/09/20 11:21:16;;;;;;;2.63;0.63;;;;;;;13.45;71.85;100901.41;5112219;28;20030;-78
2022/09/20 11:24:03;;;;;;;4.65;1.00;;;;;;;13.51;72.19;100906.31;5112360;28;20379;-78
2022/09/20 11:26:46;;;;;;;4.72;1.08;;;;;;;13.69;70.36;100906.16;5111899;28;20472;-79
2022/09/20 11:29:26;;;;;;;3.08;0.65;;;;;;;13.94;69.05;100901.56;5094117;28;20034;-78
2022/09/20 11:31:59;;;;;;;3.10;0.50;;;;;;;13.98;69.95;100903.28;5111830;28;20024;-79
2022/09/20 11:34:33;;;;;;;1.42;0.55;;;;;;;13.86;68.41;100900.53;5112264;28;20345;-81
2022/09/20 11:37:01;;;;;;;1.70;0.52;;;;;;;13.93;68.22;100903.50;5093566;28;20031;-79
2022/09/20 11:39:45;;;;;;;3.28;0.60;;;;;;;14.03;68.28;100905.81;5111966;28;20476;-79
2022/09/20 11:42:25;;;;;;;2.30;0.63;;;;;;;14.12;67.36;100909.28;5092346;28;20047;-79
2022/09/20 11:44:51;;;;;;;2.72;0.63;;;;;;;14.06;67.08;100909.81;5112125;28;20035;-79
2022/09/20 11:47:29;;;;;;;3.03;0.88;;;;;;;14.03;66.76;100911.28;5111976;28;20030;-79
2022/09/20 11:50:22;;;;;;;4.30;0.70;;;;;;;14.02;65.98;100912.44;5112411;28;20141;-80
2022/09/20 11:53:38;;;;;;;2.30;0.80;;;;;;;14.06;66.28;100909.81;5111814;28;20030;-80
2022/09/20 11:56:24;;;;;;;3.97;1.10;;;;;;;14.23;67.53;100914.28;5041349;28;20119;-79
2022/09/20 11:58:54;;;;;;;2.42;0.70;;;;;;;14.27;67.40;100916.00;5115782;28;20046;-81
2022/09/20 12:01:28;;;;;;;4.00;0.80;;;;;;;14.14;68.14;100914.41;5097821;28;20058;-80
2022/09/20 12:03:57;;;;;;;3.17;0.70;;;;;;;14.29;68.45;100912.94;5116337;28;20054;-80
2022/09/20 12:06:32;;;;;;;2.47;1.25;;;;;;;14.35;68.93;100911.59;5115839;28;20430;-79
2022/09/20 12:09:01;;;;;;;2.33;0.70;;;;;;;14.45;67.28;100911.19;5115848;28;20032;-82
2022/09/20 12:11:37;;;;;;;2.00;0.80;;;;;;;14.53;66.71;100907.50;5116154;28;20089;-79
2022/09/20 12:14:25;;;;;;;1.15;0.45;;;;;;;14.41;63.52;100910.22;5116040;28;20027;-79
2022/09/20 12:16:57;;;;;;;3.78;1.10;;;;;;;14.29;65.73;100904.75;5115917;28;20039;-83
2022/09/20 12:19:32;;;;;;;4.65;0.80;;;;;;;14.53;66.10;100896.56;5097385;28;20414;-81
2022/09/20 12:21:57;;;;;;;1.63;0.60;;;;;;;15.14;64.88;100902.00;5097592;28;20054;-79
2022/09/20 12:24:50;;;;;;;2.17;0.60;;;;;;;15.24;62.33;100904.25;5097573;28;20468;-79
2022/09/20 12:27:26;;;;;;;1.25;0.43;;;;;;;15.15;61.21;100903.59;5115198;28;20039;-79
2022/09/20 12:30:18;;;;;;;0.50;0.40;;;;;;;15.25;59.89;100897.59;5115600;28;20023;-82
2022/09/20 12:32:45;;;;;;;2.80;0.55;;;;;;;15.23;59.33;100896.34;5097572;28;20077;-82